createdAt,value
2022-08-08T00:00:40.163Z,1017.9
2022-08-08T00:00:54.655Z,1017.9
2022-08-08T00:02:03.734Z,1017.9
2022-08-08T00:02:40.147Z,1017.9
2022-08-08T00:03:40.240Z,1017.9
2022-08-08T00:04:48.807Z,1017.9
2022-08-08T00:07:40.144Z,1017.9
2022-08-08T00:08:40.142Z,1017.9
2022-08-08T00:09:40.145Z,1017.8
2022-08-08T00:10:40.144Z,1017.8
2022-08-08T00:11:46.790Z,1017.9
2022-08-08T00:12:40.148Z,1017.8
2022-08-08T00:14:17.736Z,1017.9
2022-08-08T00:14:48.391Z,1017.8
2022-08-08T00:15:57.539Z,1017.8
2022-08-08T00:16:40.156Z,1017.8
2022-08-08T00:17:58.346Z,1017.8
2022-08-08T00:18:40.153Z,1017.8
2022-08-08T00:19:40.166Z,1017.8
2022-08-08T00:20:40.151Z,1017.9
2022-08-08T00:23:42.432Z,1017.9
2022-08-08T00:24:40.228Z,1017.9
2022-08-08T00:25:46.555Z,1017.9
2022-08-08T00:28:40.154Z,1017.9
2022-08-08T00:29:44.854Z,1017.9
2022-08-08T00:32:40.571Z,1017.9
2022-08-08T00:34:17.380Z,1017.9
2022-08-08T00:34:40.149Z,1017.9
2022-08-08T00:37:47.995Z,1017.9
2022-08-08T00:38:44.285Z,1017.9
2022-08-08T00:41:10.391Z,1017.8
2022-08-08T00:41:54.691Z,1017.9
2022-08-08T00:42:42.087Z,1017.9
2022-08-08T00:44:40.149Z,1017.9
2022-08-08T00:45:40.559Z,1017.9
2022-08-08T00:46:56.888Z,1017.9
2022-08-08T00:48:05.453Z,1017.9
2022-08-08T00:49:42.163Z,1017.9
2022-08-08T00:50:40.896Z,1017.8
2022-08-08T00:51:42.160Z,1017.8
2022-08-08T00:52:43.238Z,1017.8
2022-08-08T00:53:43.715Z,1017.8
2022-08-08T00:54:40.223Z,1017.8
2022-08-08T00:57:40.183Z,1017.9
2022-08-08T00:58:40.157Z,1017.9
2022-08-08T00:59:44.526Z,1017.8
2022-08-08T01:04:01.090Z,1017.9
2022-08-08T01:04:01.459Z,1017.9
2022-08-08T01:06:40.161Z,1017.9
2022-08-08T01:07:55.604Z,1017.9
2022-08-08T01:08:40.159Z,1017.9
2022-08-08T01:11:40.165Z,1017.9
2022-08-08T01:12:40.165Z,1017.9
2022-08-08T01:13:44.365Z,1017.9
2022-08-08T01:14:53.164Z,1017.9
2022-08-08T01:16:40.158Z,1017.9
2022-08-08T01:17:53.105Z,1018
2022-08-08T01:18:52.939Z,1018
2022-08-08T01:19:52.034Z,1018
2022-08-08T01:22:05.739Z,1018
2022-08-08T01:22:40.327Z,1018
2022-08-08T01:24:40.667Z,1017.9
2022-08-08T01:25:42.992Z,1018
2022-08-08T01:26:40.158Z,1017.9
2022-08-08T01:27:44.521Z,1017.9
2022-08-08T01:29:59.384Z,1017.9
2022-08-08T01:30:40.165Z,1017.9
2022-08-08T01:32:12.732Z,1017.9
2022-08-08T01:32:40.166Z,1017.9
2022-08-08T01:34:40.166Z,1017.9
2022-08-08T01:35:40.403Z,1017.8
2022-08-08T01:36:40.480Z,1017.9
2022-08-08T01:37:57.922Z,1017.8
2022-08-08T01:38:40.170Z,1017.8
2022-08-08T01:39:42.136Z,1017.8
2022-08-08T01:40:40.170Z,1017.8
2022-08-08T01:41:43.787Z,1017.8
2022-08-08T01:43:40.181Z,1017.8
2022-08-08T01:45:40.173Z,1017.8
2022-08-08T01:46:40.171Z,1017.8
2022-08-08T01:48:40.169Z,1017.9
2022-08-08T01:50:40.168Z,1017.8
2022-08-08T01:53:01.095Z,1017.9
2022-08-08T01:55:14.665Z,1017.8
2022-08-08T01:56:26.954Z,1017.9
2022-08-08T01:56:42.442Z,1017.9
2022-08-08T01:58:47.015Z,1017.9
2022-08-08T02:00:40.182Z,1017.9
2022-08-08T02:01:55.055Z,1018
2022-08-08T02:02:41.766Z,1017.9
2022-08-08T02:03:50.551Z,1017.9
2022-08-08T02:05:56.551Z,1017.9
2022-08-08T02:06:43.261Z,1017.9
2022-08-08T02:08:40.178Z,1017.9
2022-08-08T02:10:02.081Z,1017.9
2022-08-08T02:10:45.174Z,1017.8
2022-08-08T02:11:59.435Z,1017.9
2022-08-08T02:13:53.194Z,1017.9
2022-08-08T02:14:50.140Z,1017.9
2022-08-08T02:16:40.172Z,1017.9
2022-08-08T02:17:43.161Z,1017.9
2022-08-08T02:18:40.235Z,1017.9
2022-08-08T02:20:08.079Z,1017.9
2022-08-08T02:22:52.568Z,1017.9
2022-08-08T02:23:40.178Z,1017.9
2022-08-08T02:24:40.180Z,1017.9
2022-08-08T02:27:42.394Z,1017.9
2022-08-08T02:29:47.020Z,1017.9
2022-08-08T02:30:50.249Z,1017.9
2022-08-08T02:32:40.261Z,1017.8
2022-08-08T02:33:41.621Z,1017.9
2022-08-08T02:35:06.452Z,1017.9
2022-08-08T02:36:03.685Z,1017.9
2022-08-08T02:38:40.171Z,1017.9
2022-08-08T02:39:57.575Z,1017.9
2022-08-08T02:40:40.292Z,1017.9
2022-08-08T02:41:58.706Z,1017.9
2022-08-08T02:42:42.074Z,1017.9
2022-08-08T02:44:42.641Z,1017.9
2022-08-08T02:44:56.934Z,1017.9
2022-08-08T02:46:41.409Z,1017.8
2022-08-08T02:47:40.181Z,1017.8
2022-08-08T02:48:42.649Z,1017.8
2022-08-08T02:49:51.419Z,1017.8
2022-08-08T02:51:55.190Z,1017.9
2022-08-08T02:52:40.176Z,1017.9
2022-08-08T02:53:40.178Z,1017.9
2022-08-08T02:54:40.176Z,1017.9
2022-08-08T02:56:40.182Z,1017.9
2022-08-08T02:57:44.778Z,1017.9
2022-08-08T02:59:58.259Z,1017.9
2022-08-08T03:01:49.995Z,1017.9
2022-08-08T03:02:40.237Z,1017.9
2022-08-08T03:05:04.335Z,1017.9
2022-08-08T03:05:46.399Z,1017.9
2022-08-08T03:07:41.573Z,1017.9
2022-08-08T03:08:40.175Z,1017.8
2022-08-08T03:09:41.313Z,1017.9
2022-08-08T03:10:44.698Z,1017.9
2022-08-08T03:13:01.157Z,1017.9
2022-08-08T03:15:57.286Z,1018
2022-08-08T03:15:58.853Z,1017.9
2022-08-08T03:17:40.740Z,1017.9
2022-08-08T03:19:40.179Z,1018
2022-08-08T03:20:40.179Z,1018
2022-08-08T03:21:40.679Z,1018
2022-08-08T03:22:42.997Z,1018
2022-08-08T03:23:57.475Z,1018
2022-08-08T03:25:40.176Z,1018
2022-08-08T03:26:42.039Z,1018
2022-08-08T03:28:40.199Z,1018
2022-08-08T03:29:54.728Z,1018.1
2022-08-08T03:30:40.193Z,1018.1
2022-08-08T03:32:05.317Z,1018
2022-08-08T03:32:41.457Z,1018.1
2022-08-08T03:33:55.108Z,1018.1
2022-08-08T03:34:40.450Z,1018.1
2022-08-08T03:36:40.190Z,1018.1
2022-08-08T03:38:55.095Z,1018
2022-08-08T03:38:57.513Z,1018
2022-08-08T03:40:00.064Z,1018.1
2022-08-08T03:40:40.237Z,1018.1
2022-08-08T03:42:28.488Z,1018.1
2022-08-08T03:43:40.189Z,1018.1
2022-08-08T03:44:40.256Z,1018.1
2022-08-08T03:46:05.853Z,1018.1
2022-08-08T03:46:40.195Z,1018.1
2022-08-08T03:49:54.962Z,1018
2022-08-08T03:49:57.885Z,1018
2022-08-08T03:50:40.193Z,1018.1
2022-08-08T03:51:51.330Z,1018
2022-08-08T03:54:40.700Z,1018.1
2022-08-08T03:55:55.821Z,1018.1
2022-08-08T03:56:40.184Z,1018.1
2022-08-08T03:58:40.187Z,1018.2
2022-08-08T03:59:57.410Z,1018.2
2022-08-08T04:00:56.790Z,1018.2
2022-08-08T04:02:12.826Z,1018.2
2022-08-08T04:02:47.757Z,1018.2
2022-08-08T04:04:00.004Z,1018.2
2022-08-08T04:04:40.238Z,1018.2
2022-08-08T04:05:48.044Z,1018.3
2022-08-08T04:06:40.201Z,1018.2
2022-08-08T04:07:40.190Z,1018.3
2022-08-08T04:08:40.183Z,1018.3
2022-08-08T04:10:00.307Z,1018.3
2022-08-08T04:10:40.192Z,1018.3
2022-08-08T04:11:57.784Z,1018.3
2022-08-08T04:12:40.401Z,1018.4
2022-08-08T04:14:03.439Z,1018.4
2022-08-08T04:14:40.250Z,1018.4
2022-08-08T04:15:40.190Z,1018.4
2022-08-08T04:16:41.280Z,1018.4
2022-08-08T04:17:46.347Z,1018.4
2022-08-08T04:18:41.987Z,1018.4
2022-08-08T04:20:40.203Z,1018.4
2022-08-08T04:22:40.191Z,1018.4
2022-08-08T04:24:12.096Z,1018.4
2022-08-08T04:24:40.348Z,1018.4
2022-08-08T04:25:40.187Z,1018.4
2022-08-08T04:28:02.935Z,1018.4
2022-08-08T04:28:41.685Z,1018.4
2022-08-08T04:29:40.201Z,1018.4
2022-08-08T04:30:44.610Z,1018.4
2022-08-08T04:32:40.199Z,1018.4
2022-08-08T04:33:40.195Z,1018.4
2022-08-08T04:35:40.202Z,1018.4
2022-08-08T04:36:40.206Z,1018.3
2022-08-08T04:37:40.207Z,1018.4
2022-08-08T04:38:42.247Z,1018.4
2022-08-08T04:40:40.257Z,1018.4
2022-08-08T04:42:46.571Z,1018.4
2022-08-08T04:43:45.458Z,1018.4
2022-08-08T04:44:40.231Z,1018.4
2022-08-08T04:45:40.193Z,1018.4
2022-08-08T04:48:40.207Z,1018.4
2022-08-08T04:50:00.603Z,1018.4
2022-08-08T04:50:45.905Z,1018.5
2022-08-08T04:52:40.199Z,1018.4
2022-08-08T04:54:36.156Z,1018.4
2022-08-08T04:54:42.085Z,1018.4
2022-08-08T04:55:55.592Z,1018.4
2022-08-08T04:56:40.199Z,1018.4
2022-08-08T04:58:40.194Z,1018.5
2022-08-08T04:59:42.282Z,1018.5
2022-08-08T05:00:40.195Z,1018.5
2022-08-08T05:01:48.733Z,1018.5
2022-08-08T05:04:07.893Z,1018.5
2022-08-08T05:04:40.200Z,1018.5
2022-08-08T05:05:45.320Z,1018.5
2022-08-08T05:06:40.199Z,1018.5
2022-08-08T05:07:42.648Z,1018.5
2022-08-08T05:08:40.202Z,1018.5
2022-08-08T05:09:40.202Z,1018.5
2022-08-08T05:10:40.198Z,1018.6
2022-08-08T05:11:40.884Z,1018.6
2022-08-08T05:12:53.326Z,1018.5
2022-08-08T05:14:40.195Z,1018.6
2022-08-08T05:16:53.367Z,1018.5
2022-08-08T05:16:54.999Z,1018.6
2022-08-08T05:17:53.735Z,1018.5
2022-08-08T05:20:09.478Z,1018.6
2022-08-08T05:21:43.782Z,1018.6
2022-08-08T05:22:40.200Z,1018.6
2022-08-08T05:23:41.077Z,1018.7
2022-08-08T05:24:40.432Z,1018.7
2022-08-08T05:26:40.211Z,1018.7
2022-08-08T05:27:41.867Z,1018.7
2022-08-08T05:28:48.448Z,1018.7
2022-08-08T05:29:40.701Z,1018.7
2022-08-08T05:32:04.437Z,1018.7
2022-08-08T05:32:40.490Z,1018.7
2022-08-08T05:33:48.222Z,1018.7
2022-08-08T05:34:40.207Z,1018.7
2022-08-08T05:35:40.237Z,1018.7
2022-08-08T05:36:41.050Z,1018.7
2022-08-08T05:37:52.832Z,1018.6
2022-08-08T05:38:40.215Z,1018.7
2022-08-08T05:39:40.277Z,1018.7
2022-08-08T05:40:40.229Z,1018.7
2022-08-08T05:41:54.644Z,1018.6
2022-08-08T05:42:40.213Z,1018.7
2022-08-08T05:44:03.981Z,1018.7
2022-08-08T05:44:40.220Z,1018.7
2022-08-08T05:45:41.460Z,1018.7
2022-08-08T05:46:40.207Z,1018.7
2022-08-08T05:47:52.736Z,1018.7
2022-08-08T05:48:41.678Z,1018.7
2022-08-08T05:49:40.219Z,1018.7
2022-08-08T05:50:40.204Z,1018.7
2022-08-08T05:51:48.226Z,1018.8
2022-08-08T05:52:40.488Z,1018.7
2022-08-08T05:54:26.364Z,1018.8
2022-08-08T05:56:42.251Z,1018.8
2022-08-08T05:58:04.293Z,1018.8
2022-08-08T05:58:53.682Z,1018.7
2022-08-08T05:59:59.392Z,1018.8
2022-08-08T06:00:40.217Z,1018.8
2022-08-08T06:01:51.808Z,1018.7
2022-08-08T06:02:40.884Z,1018.7
2022-08-08T06:03:40.272Z,1018.7
2022-08-08T06:05:40.230Z,1018.7
2022-08-08T06:06:40.223Z,1018.7
2022-08-08T06:07:40.210Z,1018.7
2022-08-08T06:08:40.236Z,1018.7
2022-08-08T06:10:40.704Z,1018.8
2022-08-08T06:11:46.092Z,1018.8
2022-08-08T06:12:40.236Z,1018.8
2022-08-08T06:13:47.587Z,1018.8
2022-08-08T06:15:51.196Z,1018.8
2022-08-08T06:16:40.223Z,1018.8
2022-08-08T06:18:18.627Z,1018.9
2022-08-08T06:18:40.220Z,1018.9
2022-08-08T06:19:40.228Z,1018.9
2022-08-08T06:20:40.233Z,1018.9
2022-08-08T06:21:51.924Z,1018.9
2022-08-08T06:22:42.249Z,1018.9
2022-08-08T06:23:52.921Z,1018.9
2022-08-08T06:24:40.278Z,1019
2022-08-08T06:26:44.353Z,1019
2022-08-08T06:27:41.992Z,1019
2022-08-08T06:28:40.217Z,1019
2022-08-08T06:30:00.337Z,1019
2022-08-08T06:30:40.215Z,1019
2022-08-08T06:32:40.609Z,1019
2022-08-08T06:34:26.354Z,1019
2022-08-08T06:36:07.394Z,1019
2022-08-08T06:36:53.252Z,1019
2022-08-08T06:37:40.798Z,1019
2022-08-08T06:38:40.229Z,1019
2022-08-08T06:40:40.237Z,1019
2022-08-08T06:42:40.228Z,1019
2022-08-08T06:43:40.227Z,1019
2022-08-08T06:44:42.451Z,1019
2022-08-08T06:45:40.232Z,1019
2022-08-08T06:47:52.135Z,1019
2022-08-08T06:48:40.234Z,1019
2022-08-08T06:49:56.308Z,1019
2022-08-08T06:50:40.328Z,1019
2022-08-08T06:52:42.845Z,1019
2022-08-08T06:53:51.250Z,1019
2022-08-08T06:54:40.238Z,1019
2022-08-08T06:55:41.588Z,1019
2022-08-08T06:56:40.233Z,1019
2022-08-08T06:57:54.814Z,1019
2022-08-08T06:58:40.281Z,1019
2022-08-08T07:00:10.855Z,1019
2022-08-08T07:00:40.826Z,1019
2022-08-08T07:02:27.613Z,1019
2022-08-08T07:02:45.156Z,1019
2022-08-08T07:03:52.606Z,1019.1
2022-08-08T07:04:45.437Z,1019.1
2022-08-08T07:05:40.566Z,1019.1
2022-08-08T07:07:40.244Z,1019.1
2022-08-08T07:08:40.237Z,1019.1
2022-08-08T07:09:41.499Z,1019.1
2022-08-08T07:10:47.557Z,1019.1
2022-08-08T07:12:40.248Z,1019.2
2022-08-08T07:14:40.241Z,1019.1
2022-08-08T07:16:04.465Z,1019.2
2022-08-08T07:16:51.406Z,1019.2
2022-08-08T07:18:02.030Z,1019.2
2022-08-08T07:19:40.238Z,1019.2
2022-08-08T07:20:45.817Z,1019.3
2022-08-08T07:22:40.245Z,1019.2
2022-08-08T07:24:01.466Z,1019.3
2022-08-08T07:24:40.538Z,1019.3
2022-08-08T07:25:40.256Z,1019.3
2022-08-08T07:26:40.247Z,1019.3
2022-08-08T07:28:00.621Z,1019.3
2022-08-08T07:28:40.255Z,1019.3
2022-08-08T07:30:01.830Z,1019.3
2022-08-08T07:30:40.251Z,1019.3
2022-08-08T07:31:40.242Z,1019.3
2022-08-08T07:32:40.262Z,1019.3
2022-08-08T07:33:53.687Z,1019.3
2022-08-08T07:35:00.080Z,1019.3
2022-08-08T07:35:40.264Z,1019.3
2022-08-08T07:36:41.877Z,1019.3
2022-08-08T07:37:49.729Z,1019.3
2022-08-08T07:38:40.250Z,1019.3
2022-08-08T07:39:45.702Z,1019.3
2022-08-08T07:40:40.393Z,1019.3
2022-08-08T07:42:04.543Z,1019.3
2022-08-08T07:43:40.251Z,1019.4
2022-08-08T07:44:43.526Z,1019.3
2022-08-08T07:46:40.260Z,1019.3
2022-08-08T07:47:40.460Z,1019.3
2022-08-08T07:48:40.260Z,1019.4
2022-08-08T07:49:40.446Z,1019.3
2022-08-08T07:51:44.955Z,1019.3
2022-08-08T07:52:43.428Z,1019.4
2022-08-08T07:54:40.256Z,1019.4
2022-08-08T07:56:40.267Z,1019.4
2022-08-08T07:57:48.287Z,1019.4
2022-08-08T07:58:41.027Z,1019.4
2022-08-08T07:59:40.259Z,1019.5
2022-08-08T08:02:35.201Z,1019.4
2022-08-08T08:02:40.283Z,1019.5
2022-08-08T08:03:43.405Z,1019.4
2022-08-08T08:04:41.205Z,1019.4
2022-08-08T08:05:40.263Z,1019.4
2022-08-08T08:06:41.820Z,1019.4
2022-08-08T08:07:40.836Z,1019.4
2022-08-08T08:09:40.277Z,1019.5
2022-08-08T08:10:40.271Z,1019.5
2022-08-08T08:11:51.602Z,1019.5
2022-08-08T08:14:05.980Z,1019.5
2022-08-08T08:14:40.264Z,1019.5
2022-08-08T08:15:40.295Z,1019.5
2022-08-08T08:16:41.075Z,1019.4
2022-08-08T08:18:52.106Z,1019.5
2022-08-08T08:19:45.633Z,1019.4
2022-08-08T08:20:40.266Z,1019.5
2022-08-08T08:21:52.408Z,1019.5
2022-08-08T08:23:40.662Z,1019.5
2022-08-08T08:25:46.818Z,1019.5
2022-08-08T08:26:46.788Z,1019.5
2022-08-08T08:27:46.521Z,1019.5
2022-08-08T08:28:40.265Z,1019.5
2022-08-08T08:31:41.786Z,1019.5
2022-08-08T08:32:49.290Z,1019.4
2022-08-08T08:33:40.278Z,1019.4
2022-08-08T08:34:43.502Z,1019.5
2022-08-08T08:36:40.278Z,1019.5
2022-08-08T08:37:58.896Z,1019.5
2022-08-08T08:40:01.654Z,1019.5
2022-08-08T08:40:40.278Z,1019.4
2022-08-08T08:41:40.286Z,1019.5
2022-08-08T08:42:40.277Z,1019.4
2022-08-08T08:44:40.349Z,1019.5
2022-08-08T08:45:40.278Z,1019.5
2022-08-08T08:46:40.284Z,1019.5
2022-08-08T08:47:44.840Z,1019.5
2022-08-08T08:50:41.033Z,1019.5
2022-08-08T08:51:50.914Z,1019.5
2022-08-08T08:52:43.352Z,1019.5
2022-08-08T08:53:59.720Z,1019.5
2022-08-08T08:55:40.283Z,1019.5
2022-08-08T08:57:40.301Z,1019.5
2022-08-08T08:58:41.495Z,1019.4
2022-08-08T09:01:02.779Z,1019.4
2022-08-08T09:01:43.739Z,1019.4
2022-08-08T09:02:41.166Z,1019.5
2022-08-08T09:03:46.771Z,1019.5
2022-08-08T09:05:53.956Z,1019.5
2022-08-08T09:07:52.191Z,1019.4
2022-08-08T09:08:40.289Z,1019.4
2022-08-08T09:09:48.169Z,1019.4
2022-08-08T09:10:40.293Z,1019.4
2022-08-08T09:11:47.400Z,1019.4
2022-08-08T09:12:40.300Z,1019.5
2022-08-08T09:13:40.296Z,1019.5
2022-08-08T09:14:42.629Z,1019.5
2022-08-08T09:16:40.306Z,1019.5
2022-08-08T09:17:41.877Z,1019.5
2022-08-08T09:18:40.311Z,1019.5
2022-08-08T09:21:57.825Z,1019.5
2022-08-08T09:21:58.408Z,1019.5
2022-08-08T09:22:40.317Z,1019.5
2022-08-08T09:23:40.868Z,1019.5
2022-08-08T09:24:40.298Z,1019.5
2022-08-08T09:26:00.794Z,1019.5
2022-08-08T09:26:40.795Z,1019.5
2022-08-08T09:27:56.035Z,1019.5
2022-08-08T09:28:40.311Z,1019.4
2022-08-08T09:29:40.307Z,1019.5
2022-08-08T09:32:40.313Z,1019.5
2022-08-08T09:35:40.312Z,1019.5
2022-08-08T09:36:40.315Z,1019.5
2022-08-08T09:38:01.218Z,1019.4
2022-08-08T09:40:46.540Z,1019.4
2022-08-08T09:42:14.044Z,1019.4
2022-08-08T09:42:43.852Z,1019.4
2022-08-08T09:46:01.719Z,1019.4
2022-08-08T09:46:40.318Z,1019.4
2022-08-08T09:48:43.103Z,1019.4
2022-08-08T09:49:42.067Z,1019.4
2022-08-08T09:50:43.949Z,1019.4
2022-08-08T09:52:01.866Z,1019.3
2022-08-08T09:53:59.869Z,1019.4
2022-08-08T09:54:40.555Z,1019.4
2022-08-08T09:56:05.195Z,1019.3
2022-08-08T09:56:40.892Z,1019.4
2022-08-08T09:57:46.282Z,1019.4
2022-08-08T09:58:41.587Z,1019.4
2022-08-08T09:59:50.607Z,1019.4
2022-08-08T10:00:53.224Z,1019.4
2022-08-08T10:01:59.028Z,1019.4
2022-08-08T10:02:40.434Z,1019.4
2022-08-08T10:04:47.355Z,1019.3
2022-08-08T10:05:40.372Z,1019.4
2022-08-08T10:07:44.991Z,1019.4
2022-08-08T10:10:00.826Z,1019.3
2022-08-08T10:12:53.856Z,1019.4
2022-08-08T10:14:40.331Z,1019.4
2022-08-08T10:16:40.333Z,1019.3
2022-08-08T10:18:40.331Z,1019.3
2022-08-08T10:19:57.351Z,1019.3
2022-08-08T10:20:51.207Z,1019.3
2022-08-08T10:21:42.332Z,1019.3
2022-08-08T10:23:41.198Z,1019.3
2022-08-08T10:24:40.405Z,1019.3
2022-08-08T10:25:49.549Z,1019.3
2022-08-08T10:26:52.208Z,1019.3
2022-08-08T10:27:40.341Z,1019.3
2022-08-08T10:28:40.352Z,1019.3
2022-08-08T10:29:56.657Z,1019.2
2022-08-08T10:31:00.358Z,1019.3
2022-08-08T10:31:46.938Z,1019.3
2022-08-08T10:32:40.345Z,1019.2
2022-08-08T10:34:18.605Z,1019.3
2022-08-08T10:34:40.346Z,1019.3
2022-08-08T10:36:08.257Z,1019.2
2022-08-08T10:36:40.349Z,1019.3
2022-08-08T10:37:40.346Z,1019.3
2022-08-08T10:38:40.488Z,1019.3
2022-08-08T10:39:53.642Z,1019.3
2022-08-08T10:40:40.349Z,1019.3
2022-08-08T10:42:43.633Z,1019.3
2022-08-08T10:43:40.466Z,1019.3
2022-08-08T10:44:40.348Z,1019.3
2022-08-08T10:46:40.351Z,1019.3
2022-08-08T10:47:44.146Z,1019.2
2022-08-08T10:48:57.044Z,1019.2
2022-08-08T10:50:02.242Z,1019.3
2022-08-08T10:51:47.142Z,1019.2
2022-08-08T10:53:57.765Z,1019.2
2022-08-08T10:55:45.757Z,1019.2
2022-08-08T10:56:43.062Z,1019.2
2022-08-08T10:57:50.571Z,1019.1
2022-08-08T10:58:47.366Z,1019.1
2022-08-08T11:01:40.449Z,1019.1
2022-08-08T11:02:40.362Z,1019.1
2022-08-08T11:04:01.486Z,1019.1
2022-08-08T11:05:40.364Z,1019.1
2022-08-08T11:06:41.666Z,1019.1
2022-08-08T11:08:31.362Z,1019.1
2022-08-08T11:08:41.264Z,1019.1
2022-08-08T11:09:40.370Z,1019.1
2022-08-08T11:10:41.270Z,1019.1
2022-08-08T11:12:05.608Z,1019
2022-08-08T11:12:40.374Z,1019
2022-08-08T11:13:40.368Z,1019
2022-08-08T11:14:40.365Z,1019
2022-08-08T11:16:40.360Z,1019.1
2022-08-08T11:18:00.053Z,1019.1
2022-08-08T11:18:40.374Z,1019.1
2022-08-08T11:19:40.373Z,1019.1
2022-08-08T11:21:40.375Z,1019
2022-08-08T11:22:40.365Z,1019
2022-08-08T11:23:40.375Z,1019
2022-08-08T11:24:40.374Z,1019
2022-08-08T11:25:51.814Z,1019
2022-08-08T11:26:53.828Z,1019
2022-08-08T11:27:40.378Z,1019
2022-08-08T11:28:40.378Z,1019
2022-08-08T11:29:51.051Z,1019
2022-08-08T11:30:40.962Z,1019
2022-08-08T11:32:40.376Z,1019
2022-08-08T11:33:52.943Z,1018.9
2022-08-08T11:35:07.873Z,1018.9
2022-08-08T11:35:42.498Z,1018.9
2022-08-08T11:38:35.226Z,1019
2022-08-08T11:38:53.994Z,1019
2022-08-08T11:39:40.469Z,1019
2022-08-08T11:40:40.379Z,1018.9
2022-08-08T11:42:40.768Z,1019
2022-08-08T11:46:06.961Z,1019
2022-08-08T11:48:02.495Z,1018.9
2022-08-08T11:48:40.387Z,1018.9
2022-08-08T11:50:40.382Z,1018.9
2022-08-08T11:52:45.243Z,1018.9
2022-08-08T11:53:42.909Z,1018.9
2022-08-08T11:54:44.835Z,1018.9
2022-08-08T11:57:40.397Z,1018.8
2022-08-08T11:58:40.396Z,1018.8
2022-08-08T12:00:00.613Z,1018.9
2022-08-08T12:00:40.388Z,1018.8
2022-08-08T12:01:40.391Z,1018.8
2022-08-08T12:02:41.381Z,1018.9
2022-08-08T12:03:40.427Z,1018.8
2022-08-08T12:04:40.454Z,1018.9
2022-08-08T12:05:40.405Z,1018.8
2022-08-08T12:06:42.947Z,1018.8
2022-08-08T12:07:40.403Z,1018.8
2022-08-08T12:08:40.397Z,1018.8
2022-08-08T12:09:59.544Z,1018.8
2022-08-08T12:10:40.410Z,1018.8
2022-08-08T12:11:40.415Z,1018.8
2022-08-08T12:12:40.397Z,1018.7
2022-08-08T12:14:40.439Z,1018.8
2022-08-08T12:16:47.357Z,1018.8
2022-08-08T12:18:40.408Z,1018.8
2022-08-08T12:19:51.062Z,1018.8
2022-08-08T12:21:59.961Z,1018.8
2022-08-08T12:24:40.415Z,1018.7
2022-08-08T12:26:41.463Z,1018.8
2022-08-08T12:28:40.401Z,1018.7
2022-08-08T12:29:44.888Z,1018.7
2022-08-08T12:30:40.412Z,1018.8
2022-08-08T12:31:53.734Z,1018.7
2022-08-08T12:32:40.404Z,1018.7
2022-08-08T12:34:02.770Z,1018.7
2022-08-08T12:34:40.413Z,1018.7
2022-08-08T12:35:40.409Z,1018.7
2022-08-08T12:36:40.402Z,1018.8
2022-08-08T12:37:43.069Z,1018.7
2022-08-08T12:38:40.408Z,1018.8
2022-08-08T12:40:01.451Z,1018.7
2022-08-08T12:40:54.636Z,1018.7
2022-08-08T12:41:57.065Z,1018.7
2022-08-08T12:42:47.636Z,1018.7
2022-08-08T12:43:46.271Z,1018.7
2022-08-08T12:44:40.425Z,1018.7
2022-08-08T12:45:59.128Z,1018.7
2022-08-08T12:46:40.411Z,1018.7
2022-08-08T12:48:04.755Z,1018.7
2022-08-08T12:48:40.415Z,1018.8
2022-08-08T12:49:43.586Z,1018.8
2022-08-08T12:50:40.431Z,1018.8
2022-08-08T12:51:40.419Z,1018.8
2022-08-08T12:52:40.605Z,1018.8
2022-08-08T12:53:42.447Z,1018.7
2022-08-08T12:56:06.141Z,1018.7
2022-08-08T12:56:40.429Z,1018.7
2022-08-08T12:57:49.899Z,1018.7
2022-08-08T12:58:40.425Z,1018.8
2022-08-08T13:00:40.417Z,1018.7
2022-08-08T13:01:40.449Z,1018.8
2022-08-08T13:02:42.174Z,1018.8
2022-08-08T13:03:40.424Z,1018.7
2022-08-08T13:06:02.791Z,1018.6
2022-08-08T13:06:40.427Z,1018.6
2022-08-08T13:08:03.072Z,1018.7
2022-08-08T13:08:40.429Z,1018.6
2022-08-08T13:09:43.263Z,1018.7
2022-08-08T13:12:28.292Z,1018.6
2022-08-08T13:13:40.429Z,1018.7
2022-08-08T13:14:40.426Z,1018.7
2022-08-08T13:16:40.425Z,1018.6
2022-08-08T13:18:09.407Z,1018.6
2022-08-08T13:18:55.867Z,1018.6
2022-08-08T13:19:49.850Z,1018.6
2022-08-08T13:21:55.695Z,1018.6
2022-08-08T13:22:40.428Z,1018.6
2022-08-08T13:23:46.605Z,1018.6
2022-08-08T13:24:48.063Z,1018.6
2022-08-08T13:26:40.440Z,1018.5
2022-08-08T13:27:40.448Z,1018.6
2022-08-08T13:28:42.077Z,1018.5
2022-08-08T13:29:40.769Z,1018.5
2022-08-08T13:32:40.445Z,1018.6
2022-08-08T13:33:42.538Z,1018.5
2022-08-08T13:34:40.441Z,1018.6
2022-08-08T13:35:44.829Z,1018.5
2022-08-08T13:38:04.655Z,1018.4
2022-08-08T13:38:40.953Z,1018.5
2022-08-08T13:39:40.505Z,1018.5
2022-08-08T13:40:41.469Z,1018.5
2022-08-08T13:42:40.459Z,1018.5
2022-08-08T13:43:40.440Z,1018.5
2022-08-08T13:44:40.502Z,1018.4
2022-08-08T13:45:40.818Z,1018.4
2022-08-08T13:47:40.453Z,1018.4
2022-08-08T13:48:40.438Z,1018.4
2022-08-08T13:50:36.960Z,1018.4
2022-08-08T13:50:49.426Z,1018.4
2022-08-08T13:51:41.888Z,1018.4
2022-08-08T13:52:40.712Z,1018.4
2022-08-08T13:53:40.442Z,1018.4
2022-08-08T13:54:44.164Z,1018.4
2022-08-08T13:55:40.446Z,1018.4
2022-08-08T13:56:59.664Z,1018.4
2022-08-08T13:58:06.320Z,1018.4
2022-08-08T13:58:40.456Z,1018.5
2022-08-08T13:59:40.448Z,1018.4
2022-08-08T14:00:40.448Z,1018.4
2022-08-08T14:01:52.736Z,1018.4
2022-08-08T14:02:41.294Z,1018.4
2022-08-08T14:03:54.483Z,1018.4
2022-08-08T14:04:53.284Z,1018.4
2022-08-08T14:05:58.812Z,1018.4
2022-08-08T14:06:40.462Z,1018.4
2022-08-08T14:07:42.220Z,1018.4
2022-08-08T14:08:42.232Z,1018.4
2022-08-08T14:10:05.688Z,1018.4
2022-08-08T14:11:40.454Z,1018.3
2022-08-08T14:13:59.194Z,1018.3
2022-08-08T14:14:40.448Z,1018.3
2022-08-08T14:16:40.465Z,1018.3
2022-08-08T14:18:53.405Z,1018.3
2022-08-08T14:19:57.149Z,1018.3
2022-08-08T14:21:40.454Z,1018.3
2022-08-08T14:22:42.091Z,1018.3
2022-08-08T14:24:07.097Z,1018.3
2022-08-08T14:24:40.478Z,1018.3
2022-08-08T14:26:40.456Z,1018.3
2022-08-08T14:27:41.198Z,1018.3
2022-08-08T14:28:40.465Z,1018.3
2022-08-08T14:29:40.521Z,1018.3
2022-08-08T14:32:40.467Z,1018.4
2022-08-08T14:33:40.459Z,1018.4
2022-08-08T14:34:42.477Z,1018.4
2022-08-08T14:36:40.461Z,1018.4
2022-08-08T14:37:43.144Z,1018.3
2022-08-08T14:38:52.682Z,1018.3
2022-08-08T14:39:48.438Z,1018.3
2022-08-08T14:41:45.194Z,1018.4
2022-08-08T14:42:54.955Z,1018.3
2022-08-08T14:44:10.436Z,1018.3
2022-08-08T14:44:40.472Z,1018.3
2022-08-08T14:47:40.467Z,1018.2
2022-08-08T14:48:40.466Z,1018.3
2022-08-08T14:50:05.809Z,1018.3
2022-08-08T14:50:40.526Z,1018.4
2022-08-08T14:52:40.463Z,1018.3
2022-08-08T14:53:54.920Z,1018.3
2022-08-08T14:54:40.465Z,1018.3
2022-08-08T14:55:42.433Z,1018.3
2022-08-08T14:56:40.473Z,1018.2
2022-08-08T14:58:05.885Z,1018.3
2022-08-08T14:58:40.464Z,1018.2
2022-08-08T15:00:40.475Z,1018.3
2022-08-08T15:01:41.467Z,1018.3
2022-08-08T15:03:45.070Z,1018.3
2022-08-08T15:05:52.256Z,1018.3
2022-08-08T15:06:42.664Z,1018.3
2022-08-08T15:08:53.042Z,1018.2
2022-08-08T15:10:40.471Z,1018.2
2022-08-08T15:11:43.126Z,1018.2
2022-08-08T15:12:40.958Z,1018.2
2022-08-08T15:14:00.388Z,1018.1
2022-08-08T15:16:02.961Z,1018.2
2022-08-08T15:16:40.926Z,1018.2
2022-08-08T15:18:40.487Z,1018.2
2022-08-08T15:19:40.479Z,1018.2
2022-08-08T15:20:40.488Z,1018.2
2022-08-08T15:21:42.742Z,1018.3
2022-08-08T15:23:40.483Z,1018.2
2022-08-08T15:24:40.551Z,1018.3
2022-08-08T15:25:40.477Z,1018.3
2022-08-08T15:26:40.478Z,1018.2
2022-08-08T15:28:04.777Z,1018.3
2022-08-08T15:28:40.479Z,1018.2
2022-08-08T15:29:40.488Z,1018.3
2022-08-08T15:30:40.498Z,1018.3
2022-08-08T15:32:03.451Z,1018.3
2022-08-08T15:32:40.488Z,1018.3
2022-08-08T15:33:59.348Z,1018.3
2022-08-08T15:34:40.487Z,1018.2
2022-08-08T15:35:40.496Z,1018.3
2022-08-08T15:36:40.480Z,1018.3
2022-08-08T15:38:43.343Z,1018.3
2022-08-08T15:39:40.532Z,1018.2
2022-08-08T15:40:40.482Z,1018.2
2022-08-08T15:42:40.548Z,1018.2
2022-08-08T15:43:40.495Z,1018.2
2022-08-08T15:44:40.534Z,1018.2
2022-08-08T15:45:40.490Z,1018.2
2022-08-08T15:47:40.494Z,1018.2
2022-08-08T15:48:40.490Z,1018.2
2022-08-08T15:49:40.899Z,1018.2
2022-08-08T15:50:40.484Z,1018.2
2022-08-08T15:51:40.489Z,1018.2
2022-08-08T15:52:40.486Z,1018.2
2022-08-08T15:53:50.093Z,1018.2
2022-08-08T15:54:40.650Z,1018.2
2022-08-08T15:55:40.500Z,1018.2
2022-08-08T15:57:40.490Z,1018.2
2022-08-08T15:58:46.003Z,1018.2
2022-08-08T16:00:40.538Z,1018.2
2022-08-08T16:02:44.631Z,1018.2
2022-08-08T16:03:40.487Z,1018.1